Unser Platzwetter:

(um das Bild zu aktualisieren oder bei unvollständig geladenem Bild den Reload-Button des Browsers drücken)

[Quelle: ADDS]
METAR
ETNN 082320Z VRB01KT 9999 BKN050 03/01 Q1020 BLU =
ETNN 082305Z 0900/0909 18003KT 8000 NSW BKN050 BECMG 0900/0902 20003KT 6000 -RA SCT020 BKN040 TEMPO 0905/0909 25007KT 4000 RADZ BKN008 BY ETGL
TAF
ETNN 082305Z 0900/0909 18003KT 8000 NSW BKN050 BECMG 0900/0902 20003KT 6000 -RA SCT020 BKN040 TEMPO 0905/0909 25007KT 4000 RADZ BKN008 BY ETGL =
SR / SS: 05:59 / 17:28 UTC (Vettweiss-Soller 2021-03-09)

Aktuelle Windrichtung in Relation zu unserer Bahn:

 

Aktuelle Dichtehöhe bei uns am Platz: -1.035 ft.

PPR beachten

50 44 51 N / 06 34 01 E
525 ft
14/32 Gras 360 m
136.090 MHz
02424/901444

Kontakt:

LSG Gertrudenhof e.V.
c/o Franz-Josef Schmidt
An der Gärtnerei 13
52388 Nörvenich
02426/9593651
0175/2660491

in Lokalzeit:
06:58
18:30